createdAt,value
2018-12-13T00:02:33.352Z,101415.69
2018-12-13T00:07:33.282Z,101413.98
2018-12-13T00:12:29.446Z,101412.29
2018-12-13T00:17:25.617Z,101407.84
2018-12-13T00:22:21.970Z,101397.13
2018-12-13T00:27:18.114Z,101389.42
2018-12-13T00:32:15.306Z,101398.19
2018-12-13T00:37:11.577Z,101400.39
2018-12-13T00:42:07.835Z,101395.82
2018-12-13T00:47:05.236Z,101390.28
2018-12-13T00:52:01.451Z,101389.67
2018-12-13T00:56:57.679Z,101389.29
2018-12-13T01:02:00.733Z,101385.34
2018-12-13T01:06:57.091Z,101385.47
2018-12-13T01:11:54.395Z,101385.03
2018-12-13T01:16:50.515Z,101381.23
2018-12-13T01:21:46.777Z,101377.90
2018-12-13T01:26:42.995Z,101373.48
2018-12-13T01:31:40.355Z,101369.78
2018-12-13T01:36:36.575Z,101368.92
2018-12-13T01:41:32.765Z,101373.19
2018-12-13T01:46:29.642Z,101376.59
2018-12-13T01:51:26.437Z,101378.09
2018-12-13T01:56:23.234Z,101375.59
2018-12-13T02:01:19.371Z,101382.13
2018-12-13T02:06:15.458Z,101377.27
2018-12-13T02:11:11.587Z,101378.92
2018-12-13T02:16:08.625Z,101378.71
2018-12-13T02:21:04.774Z,101378.39
2018-12-13T02:26:00.867Z,101373.73
2018-12-13T02:30:57.011Z,101365.20
2018-12-13T02:35:53.153Z,101363.43
2018-12-13T02:40:49.290Z,101362.25
2018-12-13T02:45:45.380Z,101358.38
2018-12-13T02:50:41.549Z,101351.50
2018-12-13T02:55:37.682Z,101348.42
2018-12-13T03:00:34.155Z,101349.84
2018-12-13T03:05:30.277Z,101344.41
2018-12-13T03:10:26.339Z,101345.37
2018-12-13T03:15:22.455Z,101343.73
2018-12-13T03:20:19.685Z,101344.30
2018-12-13T03:25:15.792Z,101349.25
2018-12-13T03:30:13.112Z,101347.72
2018-12-13T03:35:09.257Z,101345.37
2018-12-13T03:40:05.689Z,101337.80
2018-12-13T03:45:01.879Z,101328.17
2018-12-13T03:49:58.075Z,101328.05
2018-12-13T03:54:54.210Z,101322.75
2018-12-13T03:59:50.342Z,101316.03
2018-12-13T04:04:48.636Z,101311.20
2018-12-13T04:09:44.718Z,101316.27
2018-12-13T04:14:41.850Z,101325.21
2018-12-13T04:19:38.005Z,101317.19
2018-12-13T04:24:34.354Z,101318.61
2018-12-13T04:29:30.488Z,101319.52
2018-12-13T04:34:26.700Z,101319.65
2018-12-13T04:39:22.807Z,101312.26
2018-12-13T04:44:18.980Z,101309.17
2018-12-13T04:49:15.101Z,101300.73
2018-12-13T04:54:11.209Z,101290.25
2018-12-13T04:59:07.329Z,101282.00
2018-12-13T05:04:03.492Z,101282.23
2018-12-13T05:08:59.600Z,101277.30
2018-12-13T05:13:55.774Z,101282.13
2018-12-13T05:18:51.916Z,101276.38
2018-12-13T05:23:48.013Z,101273.28
2018-12-13T05:28:44.112Z,101270.83
2018-12-13T05:33:40.205Z,101272.59
2018-12-13T05:38:36.347Z,101271.99
2018-12-13T05:43:32.454Z,101263.66
2018-12-13T05:48:28.681Z,101262.71
2018-12-13T05:53:24.775Z,101258.09
2018-12-13T05:58:20.896Z,101259.88
2018-12-13T06:03:18.116Z,101255.98
2018-12-13T06:08:14.235Z,101253.16
2018-12-13T06:13:10.411Z,101251.61
2018-12-13T06:18:06.963Z,101247.15
2018-12-13T06:23:03.416Z,101245.48
2018-12-13T06:27:59.531Z,101243.84
2018-12-13T06:32:55.638Z,101256.62
2018-12-13T06:37:51.850Z,101254.28
2018-12-13T06:42:47.982Z,101260.63
2018-12-13T06:47:44.236Z,101268.16
2018-12-13T06:52:40.307Z,101270.14
2018-12-13T06:57:36.362Z,101269.20
2018-12-13T07:02:33.240Z,101276.14
2018-12-13T07:07:36.027Z,101270.30
2018-12-13T07:12:34.117Z,101268.91
2018-12-13T07:17:32.720Z,101272.80
2018-12-13T07:22:30.690Z,101272.00
2018-12-13T07:27:28.768Z,101276.69
2018-12-13T07:32:29.372Z,101272.11
2018-12-13T07:37:25.637Z,101279.42
2018-12-13T07:42:21.729Z,101276.95
2018-12-13T07:47:17.856Z,101283.56
2018-12-13T07:52:14.016Z,101283.08
2018-12-13T07:57:10.081Z,101274.45
2018-12-13T08:02:07.492Z,101268.98
2018-12-13T08:07:03.698Z,101272.61
2018-12-13T08:11:59.848Z,101269.36
2018-12-13T08:16:56.052Z,101272.45
2018-12-13T08:21:52.249Z,101272.64
2018-12-13T08:26:48.369Z,101269.20
2018-12-13T08:31:47.592Z,101261.69
2018-12-13T08:36:43.735Z,101264.69
2018-12-13T08:41:39.849Z,101262.98
2018-12-13T08:46:36.682Z,101255.82
2018-12-13T08:51:33.021Z,101255.82
2018-12-13T08:56:29.208Z,101254.97
2018-12-13T09:01:25.438Z,101262.95
2018-12-13T09:06:21.608Z,101265.41
2018-12-13T09:11:19.157Z,101261.27
2018-12-13T09:16:17.007Z,101261.88
2018-12-13T09:21:14.291Z,101258.55
2018-12-13T09:26:14.486Z,101259.45
2018-12-13T09:31:11.526Z,101264.75
2018-12-13T09:36:11.328Z,101263.02
2018-12-13T09:41:08.931Z,101261.26
2018-12-13T09:46:06.731Z,101263.27
2018-12-13T09:51:03.819Z,101267.33
2018-12-13T09:55:59.934Z,101260.09
2018-12-13T10:00:56.007Z,101260.56
2018-12-13T10:05:52.314Z,101256.33
2018-12-13T10:10:48.381Z,101258.80
2018-12-13T10:15:44.498Z,101254.39
2018-12-13T10:20:40.617Z,101250.08
2018-12-13T10:25:36.684Z,101250.16
2018-12-13T10:30:33.738Z,101249.98
2018-12-13T10:35:29.908Z,101240.03
2018-12-13T10:40:26.512Z,101249.50
2018-12-13T10:45:22.688Z,101250.86
2018-12-13T10:50:18.787Z,101241.69
2018-12-13T10:55:14.969Z,101245.09
2018-12-13T11:00:14.345Z,101237.33
2018-12-13T11:05:10.810Z,101227.31
2018-12-13T11:10:08.162Z,101226.34
2018-12-13T11:15:04.593Z,101215.87
2018-12-13T11:20:00.680Z,101216.16
2018-12-13T11:24:56.853Z,101199.92
2018-12-13T11:30:05.177Z,101203.90
2018-12-13T11:35:01.262Z,101199.99
2018-12-13T11:39:57.366Z,101194.56
2018-12-13T11:44:53.531Z,101201.67
2018-12-13T11:49:49.589Z,101192.02
2018-12-13T11:54:45.718Z,101183.96
2018-12-13T11:59:41.858Z,101181.46
2018-12-13T12:04:38.022Z,101173.61
2018-12-13T12:09:34.249Z,101177.06
2018-12-13T12:14:30.335Z,101170.67
2018-12-13T12:19:26.368Z,101167.81
2018-12-13T12:24:22.970Z,101165.52
2018-12-13T12:29:19.102Z,101157.45
2018-12-13T12:34:15.432Z,101154.03
2018-12-13T12:39:11.496Z,101146.98
2018-12-13T12:44:07.551Z,101138.34
2018-12-13T12:49:03.674Z,101139.86
2018-12-13T12:53:59.894Z,101139.27
2018-12-13T12:58:56.065Z,101134.14
2018-12-13T13:03:53.618Z,101140.58
2018-12-13T13:08:49.777Z,101133.26
2018-12-13T13:13:45.918Z,101127.65
2018-12-13T13:18:42.002Z,101124.23
2018-12-13T13:23:38.082Z,101130.71
2018-12-13T13:28:34.450Z,101125.25
2018-12-13T13:33:30.623Z,101132.61
2018-12-13T13:38:26.754Z,101127.75
2018-12-13T13:43:22.863Z,101119.98
2018-12-13T13:48:18.994Z,101116.94
2018-12-13T13:53:16.272Z,101106.36
2018-12-13T13:58:12.765Z,101109.59
2018-12-13T14:03:10.223Z,101110.42
2018-12-13T14:08:06.861Z,101105.30
2018-12-13T14:13:07.051Z,101113.66
2018-12-13T14:18:03.584Z,101108.05
2018-12-13T14:23:00.165Z,101121.27
2018-12-13T14:27:56.598Z,101112.31
2018-12-13T14:32:53.475Z,101122.36
2018-12-13T14:37:49.567Z,101117.88
2018-12-13T14:42:45.745Z,101120.80
2018-12-13T14:47:41.865Z,101115.73
2018-12-13T14:52:37.925Z,101109.43
2018-12-13T14:57:34.027Z,101111.06
2018-12-13T15:02:30.952Z,101106.14
2018-12-13T15:07:27.036Z,101105.48
2018-12-13T15:12:23.193Z,101111.21
2018-12-13T15:17:19.374Z,101114.02
2018-12-13T15:22:15.464Z,101113.53
2018-12-13T15:27:11.532Z,101120.53
2018-12-13T15:32:11.795Z,101123.55
2018-12-13T15:37:10.260Z,101118.95
2018-12-13T15:42:06.359Z,101126.02
2018-12-13T15:47:02.422Z,101123.12
2018-12-13T15:51:58.581Z,101121.34
2018-12-13T15:56:54.633Z,101128.40
2018-12-13T16:01:52.931Z,101119.02
2018-12-13T16:06:49.035Z,101121.83
2018-12-13T16:11:45.058Z,101119.01
2018-12-13T16:16:41.125Z,101116.94
2018-12-13T16:21:37.346Z,101116.27
2018-12-13T16:26:34.978Z,101119.47
2018-12-13T16:31:31.106Z,101117.21
2018-12-13T16:36:27.265Z,101111.42
2018-12-13T16:41:23.322Z,101111.81
2018-12-13T16:46:19.371Z,101107.03
2018-12-13T16:51:15.517Z,101087.38
2018-12-13T16:56:11.660Z,101098.29
2018-12-13T17:01:07.749Z,101092.52
2018-12-13T17:06:04.117Z,101092.02
2018-12-13T17:11:00.289Z,101094.09
2018-12-13T17:15:56.330Z,101106.31
2018-12-13T17:20:52.397Z,101109.41
2018-12-13T17:25:48.461Z,101105.94
2018-12-13T17:30:44.507Z,101097.57
2018-12-13T17:35:40.554Z,101106.14
2018-12-13T17:40:36.639Z,101097.37
2018-12-13T17:45:32.788Z,101109.92
2018-12-13T17:50:28.928Z,101101.75
2018-12-13T17:55:25.018Z,101116.09
2018-12-13T18:00:21.068Z,101115.02
2018-12-13T18:05:17.103Z,101117.56
2018-12-13T18:10:13.146Z,101122.05
2018-12-13T18:15:09.295Z,101124.19
2018-12-13T18:20:05.608Z,101127.70
2018-12-13T18:25:01.865Z,101116.67
2018-12-13T18:29:57.918Z,101116.02
2018-12-13T18:34:53.963Z,101122.25
2018-12-13T18:39:50.020Z,101107.97
2018-12-13T18:44:46.049Z,101114.11
2018-12-13T18:49:42.087Z,101110.72
2018-12-13T18:54:38.208Z,101117.40
2018-12-13T18:59:34.248Z,101111.67
2018-12-13T19:04:30.277Z,101117.22
2018-12-13T19:09:26.316Z,101111.40
2018-12-13T19:14:22.354Z,101114.27
2018-12-13T19:19:18.406Z,101112.02
2018-12-13T19:24:14.440Z,101115.13
2018-12-13T19:29:10.497Z,101112.85
2018-12-13T19:34:06.544Z,101116.67
2018-12-13T19:39:04.654Z,101121.94
2018-12-13T19:44:01.461Z,101118.63
2018-12-13T19:48:58.130Z,101122.10
2018-12-13T19:53:54.829Z,101122.38
2018-12-13T19:58:51.313Z,101126.27
2018-12-13T20:03:47.985Z,101130.70
2018-12-13T20:08:44.615Z,101127.38
2018-12-13T20:13:41.234Z,101137.80
2018-12-13T20:18:37.853Z,101139.86
2018-12-13T20:23:34.492Z,101151.70
2018-12-13T20:28:31.156Z,101145.27
2018-12-13T20:33:27.791Z,101156.33
2018-12-13T20:38:24.430Z,101153.31
2018-12-13T20:43:20.787Z,101152.88
2018-12-13T20:48:17.406Z,101149.33
2018-12-13T20:53:13.973Z,101150.07
2018-12-13T20:58:10.687Z,101151.77
2018-12-13T21:03:06.719Z,101150.08
2018-12-13T21:08:07.939Z,101151.55
2018-12-13T21:13:04.074Z,101151.20
2018-12-13T21:18:00.234Z,101154.47
2018-12-13T21:22:56.262Z,101147.65
2018-12-13T21:27:52.346Z,101147.42
2018-12-13T21:32:49.399Z,101149.11
2018-12-13T21:37:45.959Z,101152.81
2018-12-13T21:42:42.458Z,101158.89
2018-12-13T21:47:38.984Z,101157.20
2018-12-13T21:52:35.636Z,101157.38
2018-12-13T21:57:32.122Z,101157.42
2018-12-13T22:02:28.937Z,101158.77
2018-12-13T22:07:24.973Z,101144.49
2018-12-13T22:12:21.007Z,101152.45
2018-12-13T22:17:17.181Z,101160.20
2018-12-13T22:22:14.055Z,101154.24
2018-12-13T22:27:10.085Z,101155.45
2018-12-13T22:32:09.325Z,101158.57
2018-12-13T22:37:06.374Z,101160.75
2018-12-13T22:42:02.772Z,101161.56
2018-12-13T22:46:59.204Z,101162.17
2018-12-13T22:51:55.946Z,101167.23
2018-12-13T22:56:52.417Z,101165.68
2018-12-13T23:01:49.491Z,101171.81
2018-12-13T23:06:45.993Z,101164.34
2018-12-13T23:11:42.309Z,101162.63
2018-12-13T23:16:38.862Z,101162.10
2018-12-13T23:21:35.558Z,101164.22
2018-12-13T23:26:32.158Z,101168.86
2018-12-13T23:31:28.554Z,101163.95
2018-12-13T23:36:24.892Z,101165.60
2018-12-13T23:41:21.296Z,101167.95
2018-12-13T23:46:17.625Z,101164.88
2018-12-13T23:51:13.909Z,101170.19
2018-12-13T23:56:09.959Z,101174.52
